createdAt,value
2018-07-19T00:01:40.090Z,5.07
2018-07-19T00:04:10.509Z,5.47
2018-07-19T00:06:41.290Z,5.20
2018-07-19T00:09:11.931Z,5.10
2018-07-19T00:11:42.297Z,5.10
2018-07-19T00:14:12.788Z,5.10
2018-07-19T00:16:43.216Z,5.30
2018-07-19T00:19:14.627Z,4.60
2018-07-19T00:21:45.248Z,4.73
2018-07-19T00:24:15.643Z,4.53
2018-07-19T00:26:45.996Z,5.07
2018-07-19T00:29:16.484Z,4.93
2018-07-19T00:31:47.904Z,4.70
2018-07-19T00:34:18.433Z,4.57
2018-07-19T00:36:49.998Z,4.37
2018-07-19T00:39:20.682Z,4.03
2018-07-19T00:41:51.041Z,4.57
2018-07-19T00:44:21.584Z,4.57
2018-07-19T00:46:52.110Z,4.50
2018-07-19T00:49:22.475Z,4.13
2018-07-19T00:51:53.171Z,4.43
2018-07-19T00:54:23.447Z,4.17
2018-07-19T00:56:57.100Z,4.10
2018-07-19T00:59:27.459Z,4.40
2018-07-19T01:01:58.084Z,4.10
2018-07-19T01:04:28.589Z,4.63
2018-07-19T01:06:59.142Z,4.37
2018-07-19T01:09:29.646Z,4.73
2018-07-19T01:12:00.060Z,4.63
2018-07-19T01:14:30.393Z,7.03
2018-07-19T01:17:01.208Z,4.87
2018-07-19T01:19:31.736Z,4.70
2018-07-19T01:22:02.140Z,5.03
2018-07-19T01:24:32.715Z,4.60
2018-07-19T01:27:03.199Z,4.37
2018-07-19T01:29:33.688Z,4.83
2018-07-19T01:32:04.015Z,4.70
2018-07-19T01:34:34.389Z,5.60
2018-07-19T01:37:04.878Z,4.60
2018-07-19T01:39:37.032Z,4.50
2018-07-19T01:42:20.158Z,4.53
2018-07-19T01:44:50.637Z,4.83
2018-07-19T01:47:21.008Z,4.30
2018-07-19T01:49:51.595Z,4.27
2018-07-19T01:52:21.975Z,4.83
2018-07-19T01:54:52.546Z,4.77
2018-07-19T01:57:22.989Z,4.27
2018-07-19T01:59:54.348Z,4.90
2018-07-19T02:02:24.842Z,4.70
2018-07-19T02:04:55.405Z,5.00
2018-07-19T02:07:26.179Z,5.10
2018-07-19T02:09:56.712Z,5.00
2018-07-19T02:12:27.380Z,5.40
2018-07-19T02:14:58.021Z,5.60
2018-07-19T02:17:28.580Z,5.50
2018-07-19T02:19:59.071Z,5.90
2018-07-19T02:22:29.936Z,5.27
2018-07-19T02:25:00.307Z,6.17
2018-07-19T02:27:31.681Z,6.10
2018-07-19T02:30:02.199Z,6.60
2018-07-19T02:32:32.958Z,5.13
2018-07-19T02:35:03.536Z,5.63
2018-07-19T02:37:33.958Z,5.70
2018-07-19T02:40:04.528Z,5.17
2018-07-19T02:42:34.941Z,5.13
2018-07-19T02:45:05.539Z,4.40
2018-07-19T02:47:36.378Z,4.97
2018-07-19T02:50:07.046Z,5.07
2018-07-19T02:52:37.431Z,4.80
2018-07-19T02:55:07.826Z,4.70
2018-07-19T02:57:38.475Z,5.37
2018-07-19T03:00:08.985Z,5.20
2018-07-19T03:02:39.555Z,4.57
2018-07-19T03:05:10.377Z,5.23
2018-07-19T03:07:41.202Z,4.97
2018-07-19T03:10:11.536Z,5.60
2018-07-19T03:12:42.014Z,4.83
2018-07-19T03:15:12.529Z,5.13
2018-07-19T03:17:43.189Z,5.63
2018-07-19T03:20:13.569Z,4.83
2018-07-19T03:22:44.997Z,4.67
2018-07-19T03:25:15.406Z,5.37
2018-07-19T03:27:45.952Z,4.50
2018-07-19T03:30:16.494Z,4.60
2018-07-19T03:32:46.854Z,4.80
2018-07-19T03:35:17.506Z,4.97
2018-07-19T03:37:48.813Z,4.67
2018-07-19T03:40:19.214Z,5.23
2018-07-19T03:42:49.872Z,4.70
2018-07-19T03:45:20.439Z,5.10
2018-07-19T03:47:50.786Z,5.00
2018-07-19T03:50:21.272Z,4.60
2018-07-19T03:52:51.757Z,5.23
2018-07-19T03:55:22.211Z,5.73
2018-07-19T03:57:53.836Z,6.30
2018-07-19T04:00:24.468Z,6.07
2018-07-19T04:02:55.024Z,5.47
2018-07-19T04:05:25.445Z,5.97
2018-07-19T04:07:56.120Z,5.87
2018-07-19T04:10:26.659Z,6.33
2018-07-19T04:12:57.357Z,6.43
2018-07-19T04:15:27.786Z,6.63
2018-07-19T04:17:59.139Z,6.60
2018-07-19T04:20:31.151Z,6.07
2018-07-19T04:23:01.725Z,6.73
2018-07-19T04:25:32.147Z,6.27
2018-07-19T04:28:02.608Z,6.17
2018-07-19T04:30:33.219Z,6.43
2018-07-19T04:33:03.872Z,6.50
2018-07-19T04:35:34.342Z,6.40
2018-07-19T04:38:05.737Z,6.17
2018-07-19T04:40:36.159Z,6.73
2018-07-19T04:43:06.547Z,7.33
2018-07-19T04:45:37.231Z,6.63
2018-07-19T04:48:07.773Z,6.60
2018-07-19T04:50:38.381Z,6.33
2018-07-19T04:53:08.861Z,6.80
2018-07-19T04:55:39.277Z,7.10
2018-07-19T04:58:09.846Z,5.70
2018-07-19T05:00:40.315Z,5.70
2018-07-19T05:03:10.937Z,5.43
2018-07-19T05:05:41.396Z,5.57
2018-07-19T05:08:12.178Z,6.67
2018-07-19T05:10:42.687Z,6.10
2018-07-19T05:13:13.165Z,6.37
2018-07-19T05:15:43.967Z,5.87
2018-07-19T05:18:14.640Z,6.47
2018-07-19T05:20:45.135Z,4.97
2018-07-19T05:23:15.641Z,5.23
2018-07-19T05:25:46.142Z,4.70
2018-07-19T05:28:16.580Z,4.93
2018-07-19T05:30:47.388Z,5.00
2018-07-19T05:33:18.179Z,4.93
2018-07-19T05:35:49.902Z,5.80
2018-07-19T05:38:20.539Z,4.67
2018-07-19T05:40:51.179Z,5.40
2018-07-19T05:43:21.710Z,5.20
2018-07-19T05:45:52.110Z,5.03
2018-07-19T05:48:22.575Z,5.73
2018-07-19T05:50:53.098Z,4.97
2018-07-19T05:53:23.663Z,4.93
2018-07-19T05:55:54.128Z,5.10
2018-07-19T05:58:25.675Z,4.80
2018-07-19T06:00:56.113Z,5.53
2018-07-19T06:03:26.724Z,6.80
2018-07-19T06:05:57.262Z,6.50
2018-07-19T06:08:27.766Z,6.90
2018-07-19T06:10:58.940Z,5.70
2018-07-19T06:13:29.433Z,6.83
2018-07-19T06:16:00.181Z,6.73
2018-07-19T06:18:30.735Z,6.17
2018-07-19T06:21:01.341Z,5.87
2018-07-19T06:23:31.842Z,7.20
2018-07-19T06:26:02.507Z,7.30
2018-07-19T06:28:33.370Z,6.87
2018-07-19T06:31:04.272Z,7.57
2018-07-19T06:33:35.112Z,6.70
2018-07-19T06:36:05.788Z,6.70
2018-07-19T06:38:36.312Z,12.10
2018-07-19T06:41:06.849Z,7.23
2018-07-19T06:43:37.438Z,7.20
2018-07-19T06:46:08.200Z,8.50
2018-07-19T06:48:38.998Z,7.53
2018-07-19T06:51:09.638Z,5.73
2018-07-19T06:53:40.189Z,5.73
2018-07-19T06:56:10.993Z,4.90
2018-07-19T06:58:41.629Z,4.40
2018-07-19T07:01:12.079Z,4.53
2018-07-19T07:03:42.711Z,4.60
2018-07-19T07:06:13.783Z,5.00
2018-07-19T07:08:44.696Z,5.20
2018-07-19T07:11:16.252Z,3.93
2018-07-19T07:13:46.689Z,4.30
2018-07-19T07:16:17.220Z,4.83
2018-07-19T07:18:47.549Z,4.27
2018-07-19T07:21:18.056Z,4.23
2018-07-19T07:23:48.622Z,4.33
2018-07-19T07:26:19.824Z,4.60
2018-07-19T07:28:50.411Z,4.60
2018-07-19T07:31:20.839Z,4.90
2018-07-19T07:33:51.527Z,4.50
2018-07-19T07:36:22.107Z,4.77
2018-07-19T07:38:52.706Z,4.00
2018-07-19T07:41:24.077Z,4.60
2018-07-19T07:43:54.530Z,4.13
2018-07-19T07:46:25.064Z,4.53
2018-07-19T07:48:55.816Z,4.20
2018-07-19T07:51:26.263Z,4.40
2018-07-19T07:53:56.988Z,5.47
2018-07-19T07:56:27.675Z,5.47
2018-07-19T07:58:58.108Z,6.70
2018-07-19T08:01:28.806Z,5.97
2018-07-19T08:03:59.498Z,4.77
2018-07-19T08:06:30.357Z,5.30
2018-07-19T08:09:01.514Z,5.73
2018-07-19T08:11:32.210Z,5.20
2018-07-19T08:14:02.883Z,5.53
2018-07-19T08:16:33.525Z,5.10
2018-07-19T08:19:04.252Z,6.90
2018-07-19T08:21:36.051Z,5.30
2018-07-19T08:24:07.314Z,4.90
2018-07-19T08:26:37.995Z,4.00
2018-07-19T08:29:08.820Z,4.53
2018-07-19T08:31:39.703Z,4.73
2018-07-19T08:34:10.187Z,4.07
2018-07-19T08:36:40.855Z,4.23
2018-07-19T08:39:13.947Z,4.40
2018-07-19T08:41:45.781Z,5.07
2018-07-19T08:44:16.548Z,4.40
2018-07-19T08:46:47.187Z,4.07
2018-07-19T08:49:18.196Z,4.30
2018-07-19T08:51:48.973Z,4.00
2018-07-19T08:54:19.884Z,4.60
2018-07-19T08:56:50.831Z,4.30
2018-07-19T08:59:21.743Z,4.10
2018-07-19T09:01:53.308Z,3.73
2018-07-19T09:04:24.984Z,4.10
2018-07-19T09:06:57.385Z,4.07
2018-07-19T09:09:29.788Z,4.10
2018-07-19T09:12:02.739Z,4.60
2018-07-19T09:14:35.133Z,4.17
2018-07-19T09:17:07.667Z,4.77
2018-07-19T09:19:40.153Z,4.83
2018-07-19T09:22:12.626Z,3.67
2018-07-19T09:24:45.576Z,5.40
2018-07-19T09:27:18.336Z,3.97
2018-07-19T09:29:51.338Z,4.53
2018-07-19T09:32:25.776Z,4.30
2018-07-19T09:34:58.825Z,3.97
2018-07-19T09:37:31.809Z,4.07
2018-07-19T09:40:04.016Z,4.40
2018-07-19T09:42:37.645Z,4.27
2018-07-19T09:45:10.707Z,4.57
2018-07-19T09:47:43.370Z,4.17
2018-07-19T09:50:15.941Z,4.13
2018-07-19T09:52:49.646Z,4.73
2018-07-19T09:55:22.625Z,5.17
2018-07-19T09:57:55.350Z,4.03
2018-07-19T10:00:32.754Z,4.70
2018-07-19T10:03:05.801Z,4.33
2018-07-19T10:05:39.150Z,6.77
2018-07-19T10:08:12.936Z,4.63
2018-07-19T10:10:46.711Z,4.70
2018-07-19T10:13:19.870Z,4.63
2018-07-19T10:15:52.737Z,6.23
2018-07-19T10:18:25.399Z,7.10
2018-07-19T10:20:59.188Z,4.60
2018-07-19T10:23:32.127Z,6.93
2018-07-19T10:26:05.900Z,4.70
2018-07-19T10:28:38.665Z,4.80
2018-07-19T10:31:12.440Z,4.53
2018-07-19T10:33:45.613Z,4.60
2018-07-19T10:36:18.107Z,4.53
2018-07-19T10:38:51.086Z,4.67
2018-07-19T10:41:23.943Z,4.30
2018-07-19T10:43:56.952Z,4.17
2018-07-19T10:46:30.234Z,4.30
2018-07-19T10:49:04.289Z,4.00
2018-07-19T10:51:37.315Z,4.60
2018-07-19T10:54:10.523Z,4.10
2018-07-19T10:56:43.177Z,4.80
2018-07-19T10:59:16.657Z,4.53
2018-07-19T11:01:49.518Z,4.03
2018-07-19T11:04:22.264Z,4.70
2018-07-19T11:06:55.139Z,4.40
2018-07-19T11:09:28.088Z,4.30
2018-07-19T11:12:01.062Z,4.33
2018-07-19T11:14:34.629Z,3.83
2018-07-19T11:17:09.170Z,5.37
2018-07-19T11:19:42.545Z,5.30
2018-07-19T11:22:15.378Z,5.17
2018-07-19T11:24:48.293Z,3.77
2018-07-19T11:27:23.253Z,3.90
2018-07-19T11:29:53.840Z,3.70
2018-07-19T11:32:24.368Z,4.17
2018-07-19T11:34:54.820Z,3.77
2018-07-19T11:37:25.552Z,3.70
2018-07-19T11:39:56.290Z,4.20
2018-07-19T11:42:27.050Z,4.97
2018-07-19T11:44:57.817Z,4.80
2018-07-19T11:47:28.370Z,3.60
2018-07-19T11:49:58.798Z,4.17
2018-07-19T11:52:29.349Z,3.37
2018-07-19T11:54:59.800Z,3.77
2018-07-19T11:57:30.286Z,4.83
2018-07-19T12:00:00.671Z,4.73
2018-07-19T12:02:31.340Z,5.40
2018-07-19T12:05:02.022Z,4.57
2018-07-19T12:07:32.468Z,4.60
2018-07-19T12:10:03.352Z,4.17
2018-07-19T12:12:33.929Z,3.90
2018-07-19T12:15:04.775Z,3.43
2018-07-19T12:17:35.227Z,3.80
2018-07-19T12:20:05.941Z,3.43
2018-07-19T12:22:36.667Z,3.73
2018-07-19T12:25:07.738Z,3.57
2018-07-19T12:27:38.576Z,3.90
2018-07-19T12:30:09.363Z,3.57
2018-07-19T12:32:40.137Z,3.17
2018-07-19T12:35:10.774Z,4.20
2018-07-19T12:37:41.264Z,3.90
2018-07-19T12:40:11.785Z,3.53
2018-07-19T12:42:42.210Z,4.03
2018-07-19T12:45:13.576Z,4.10
2018-07-19T12:47:44.069Z,4.53
2018-07-19T12:50:14.626Z,3.33
2018-07-19T12:52:45.335Z,4.40
2018-07-19T12:55:15.911Z,3.77
2018-07-19T12:57:46.293Z,3.93
2018-07-19T13:00:16.934Z,3.60
2018-07-19T13:02:47.346Z,3.50
2018-07-19T13:05:18.526Z,3.57
2018-07-19T13:07:49.061Z,3.60
2018-07-19T13:10:19.539Z,3.07
2018-07-19T13:12:51.473Z,3.17
2018-07-19T13:15:21.987Z,3.57
2018-07-19T13:17:52.393Z,3.33
2018-07-19T13:20:22.997Z,3.13
2018-07-19T13:22:53.545Z,3.27
2018-07-19T13:25:24.541Z,3.63
2018-07-19T13:27:54.851Z,3.47
2018-07-19T13:30:25.636Z,2.67
2018-07-19T13:32:56.127Z,3.80
2018-07-19T13:35:26.575Z,3.30
2018-07-19T13:37:57.144Z,3.43
2018-07-19T13:40:27.920Z,3.23
2018-07-19T13:42:58.511Z,3.83
2018-07-19T13:45:29.255Z,4.33
2018-07-19T13:48:00.035Z,3.73
2018-07-19T13:50:30.769Z,3.30
2018-07-19T13:54:11.784Z,3.57
2018-07-19T13:56:42.436Z,3.87
2018-07-19T13:59:13.023Z,3.63
2018-07-19T14:01:43.705Z,3.90
2018-07-19T14:04:14.373Z,4.53
2018-07-19T14:06:45.010Z,3.40
2018-07-19T14:09:16.184Z,2.83
2018-07-19T14:11:47.398Z,3.83
2018-07-19T14:14:17.710Z,3.23
2018-07-19T14:16:48.145Z,3.73
2018-07-19T14:19:18.531Z,3.33
2018-07-19T14:21:48.825Z,3.60
2018-07-19T14:24:19.464Z,4.07
2018-07-19T14:26:50.125Z,3.67
2018-07-19T14:29:20.569Z,3.97
2018-07-19T14:31:50.845Z,3.43
2018-07-19T14:34:21.440Z,3.80
2018-07-19T14:36:51.886Z,3.37
2018-07-19T14:39:22.465Z,4.23
2018-07-19T14:41:52.936Z,3.87
2018-07-19T14:44:23.566Z,3.80
2018-07-19T14:46:54.042Z,3.40
2018-07-19T14:49:24.546Z,3.97
2018-07-19T14:51:54.805Z,3.53
2018-07-19T14:54:25.309Z,4.00
2018-07-19T14:56:55.777Z,4.00
2018-07-19T14:59:26.251Z,4.30
2018-07-19T15:01:56.858Z,4.63
2018-07-19T15:04:27.469Z,4.27
2018-07-19T15:06:57.812Z,4.00
2018-07-19T15:09:28.449Z,4.03
2018-07-19T15:11:58.796Z,4.13
2018-07-19T15:14:29.283Z,3.57
2018-07-19T15:16:59.671Z,4.00
2018-07-19T15:19:30.204Z,4.10
2018-07-19T15:22:01.007Z,3.87
2018-07-19T15:24:31.474Z,3.33
2018-07-19T15:27:02.666Z,4.50
2018-07-19T15:29:33.055Z,5.17
2018-07-19T15:32:03.499Z,4.60
2018-07-19T15:34:34.158Z,4.57
2018-07-19T15:37:04.650Z,4.10
2018-07-19T15:39:35.294Z,4.00
2018-07-19T15:42:05.794Z,3.90
2018-07-19T15:44:36.325Z,3.90
2018-07-19T15:47:12.031Z,4.13
2018-07-19T15:49:43.187Z,4.13
2018-07-19T15:52:13.817Z,4.40
2018-07-19T15:54:44.340Z,5.30
2018-07-19T15:57:14.730Z,4.03
2018-07-19T15:59:45.425Z,4.07
2018-07-19T16:02:15.692Z,4.40
2018-07-19T16:04:46.281Z,4.90
2018-07-19T16:07:16.719Z,4.17
2018-07-19T16:09:47.096Z,5.00
2018-07-19T16:12:18.095Z,4.40
2018-07-19T16:14:48.597Z,5.10
2018-07-19T16:17:19.029Z,4.30
2018-07-19T16:19:49.278Z,5.23
2018-07-19T16:22:19.657Z,9.37
2018-07-19T16:24:50.075Z,4.73
2018-07-19T16:27:20.917Z,4.00
2018-07-19T16:29:51.289Z,4.07
2018-07-19T16:32:21.702Z,4.47
2018-07-19T16:34:51.998Z,4.77
2018-07-19T16:37:22.774Z,4.20
2018-07-19T16:39:53.989Z,6.97
2018-07-19T16:42:24.664Z,7.13
2018-07-19T16:44:55.209Z,7.40
2018-07-19T16:47:25.837Z,11.93
2018-07-19T16:49:56.055Z,8.93
2018-07-19T16:52:26.464Z,5.20
2018-07-19T16:54:56.977Z,5.10
2018-07-19T16:57:27.559Z,4.83
2018-07-19T16:59:58.062Z,4.23
2018-07-19T17:02:28.580Z,4.43
2018-07-19T17:04:59.219Z,4.23
2018-07-19T17:07:29.628Z,4.13
2018-07-19T17:09:59.948Z,5.33
2018-07-19T17:12:30.416Z,5.63
2018-07-19T17:15:00.803Z,5.43
2018-07-19T17:17:31.338Z,5.10
2018-07-19T17:20:01.695Z,4.77
2018-07-19T17:22:32.010Z,6.27
2018-07-19T17:25:02.380Z,5.07
2018-07-19T17:27:32.751Z,4.83
2018-07-19T17:30:03.335Z,4.50
2018-07-19T17:32:33.801Z,4.40
2018-07-19T17:35:04.203Z,4.77
2018-07-19T17:37:34.546Z,5.00
2018-07-19T17:40:05.377Z,5.27
2018-07-19T17:42:36.093Z,5.23
2018-07-19T17:45:06.991Z,5.20
2018-07-19T17:47:37.291Z,4.87
2018-07-19T17:50:08.420Z,6.83
2018-07-19T17:52:38.862Z,9.23
2018-07-19T17:55:09.259Z,5.30
2018-07-19T17:57:39.769Z,7.80
2018-07-19T18:00:10.236Z,4.97
2018-07-19T18:02:41.077Z,4.60
2018-07-19T18:05:11.573Z,5.00
2018-07-19T18:07:42.039Z,4.30
2018-07-19T18:10:13.282Z,4.60
2018-07-19T18:12:43.803Z,4.57
2018-07-19T18:15:14.411Z,4.90
2018-07-19T18:17:44.638Z,8.63
2018-07-19T18:20:15.031Z,5.77
2018-07-19T18:26:18.662Z,5.10
2018-07-19T18:28:48.968Z,4.53
2018-07-19T18:31:19.363Z,5.57
2018-07-19T18:33:49.980Z,8.07
2018-07-19T18:36:20.494Z,7.63
2018-07-19T18:38:50.795Z,5.03
2018-07-19T18:41:21.155Z,5.77
2018-07-19T18:43:51.635Z,5.67
2018-07-19T18:46:22.129Z,7.60
2018-07-19T18:48:52.503Z,6.57
2018-07-19T18:51:22.796Z,6.00
2018-07-19T18:53:53.246Z,6.27
2018-07-19T18:56:23.515Z,6.70
2018-07-19T18:58:53.925Z,9.97
2018-07-19T19:01:24.545Z,6.27
2018-07-19T19:03:54.913Z,8.20
2018-07-19T19:06:25.194Z,5.10
2018-07-19T19:08:55.537Z,5.97
2018-07-19T19:11:25.996Z,6.03
2018-07-19T19:13:56.612Z,5.97
2018-07-19T19:16:27.033Z,6.33
2018-07-19T19:18:57.327Z,6.57
2018-07-19T19:21:27.641Z,5.80
2018-07-19T19:23:58.113Z,6.00
2018-07-19T19:26:28.448Z,6.47
2018-07-19T19:28:58.713Z,6.23
2018-07-19T19:31:29.312Z,6.30
2018-07-19T19:33:59.656Z,6.80
2018-07-19T19:36:30.139Z,6.37
2018-07-19T19:39:00.517Z,6.50
2018-07-19T19:41:31.109Z,7.00
2018-07-19T19:44:01.794Z,6.23
2018-07-19T19:46:32.306Z,6.47
2018-07-19T19:49:03.234Z,6.80
2018-07-19T19:51:33.807Z,7.27
2018-07-19T19:54:04.384Z,7.20
2018-07-19T19:56:35.218Z,7.67
2018-07-19T19:59:05.541Z,7.77
2018-07-19T20:01:37.279Z,6.67
2018-07-19T20:04:07.768Z,7.07
2018-07-19T20:06:38.337Z,7.27
2018-07-19T20:09:11.064Z,6.93
2018-07-19T20:11:41.667Z,7.80
2018-07-19T20:14:11.980Z,7.00
2018-07-19T20:16:42.356Z,8.77
2018-07-19T20:19:12.679Z,7.83
2018-07-19T20:21:42.972Z,8.70
2018-07-19T20:24:13.629Z,8.77
2018-07-19T20:26:44.071Z,9.00
2018-07-19T20:29:14.739Z,9.27
2018-07-19T20:31:45.337Z,9.70
2018-07-19T20:34:15.662Z,9.17
2018-07-19T20:36:46.095Z,11.27
2018-07-19T20:39:16.738Z,8.77
2018-07-19T20:41:47.167Z,9.10
2018-07-19T20:44:17.562Z,8.80
2018-07-19T20:46:48.165Z,10.57
2018-07-19T20:49:18.559Z,10.63
2018-07-19T20:51:49.014Z,9.30
2018-07-19T20:54:19.411Z,10.50
2018-07-19T20:56:49.653Z,10.10
2018-07-19T20:59:19.971Z,10.03
2018-07-19T21:01:50.293Z,10.37
2018-07-19T21:04:21.077Z,11.47
2018-07-19T21:06:51.627Z,11.30
2018-07-19T21:09:22.773Z,11.43
2018-07-19T21:11:53.266Z,11.90
2018-07-19T21:14:23.701Z,11.13
2018-07-19T21:16:55.108Z,12.87
2018-07-19T21:19:26.304Z,11.50
2018-07-19T21:21:57.054Z,11.43
2018-07-19T21:24:27.227Z,11.37
2018-07-19T21:26:57.677Z,11.17
2018-07-19T21:29:27.903Z,11.43
2018-07-19T21:31:58.109Z,10.70
2018-07-19T21:34:28.485Z,10.83
2018-07-19T21:36:58.977Z,11.03
2018-07-19T21:39:29.213Z,9.80
2018-07-19T21:41:59.648Z,11.10
2018-07-19T21:44:30.039Z,10.47
2018-07-19T21:47:00.374Z,11.03
2018-07-19T21:49:30.900Z,11.53
2018-07-19T21:52:01.273Z,10.80
2018-07-19T21:54:31.505Z,11.37
2018-07-19T21:57:01.908Z,10.80
2018-07-19T21:59:32.390Z,11.73
2018-07-19T22:02:18.728Z,11.27
2018-07-19T22:04:54.861Z,10.80
2018-07-19T22:07:25.147Z,11.17
2018-07-19T22:09:55.664Z,11.90
2018-07-19T22:12:26.089Z,10.80
2018-07-19T22:14:56.433Z,10.73
2018-07-19T22:17:42.794Z,10.53
2018-07-19T22:20:35.637Z,10.83
2018-07-19T22:23:11.939Z,11.77
2018-07-19T22:25:44.116Z,10.30
2018-07-19T22:28:14.461Z,10.50
2018-07-19T22:31:00.893Z,10.70
2018-07-19T22:33:31.263Z,10.60
2018-07-19T22:36:01.668Z,9.97
2018-07-19T22:38:32.102Z,10.70
2018-07-19T22:41:03.321Z,11.47
2018-07-19T22:43:33.542Z,10.87
2018-07-19T22:46:03.883Z,11.53
2018-07-19T22:48:34.310Z,11.00
2018-07-19T22:51:04.632Z,10.57
2018-07-19T22:53:34.990Z,12.27
2018-07-19T22:56:05.244Z,11.73
2018-07-19T22:58:35.609Z,11.63
2018-07-19T23:01:05.905Z,11.17
2018-07-19T23:03:36.524Z,11.57
2018-07-19T23:06:06.969Z,10.87
2018-07-19T23:08:37.549Z,12.20
2018-07-19T23:11:08.008Z,11.47
2018-07-19T23:13:38.298Z,10.97
2018-07-19T23:16:09.155Z,11.40
2018-07-19T23:18:39.559Z,10.87
2018-07-19T23:21:10.092Z,10.83
2018-07-19T23:23:40.443Z,11.40
2018-07-19T23:26:10.854Z,11.27
2018-07-19T23:28:41.357Z,11.27
2018-07-19T23:31:12.092Z,11.27
2018-07-19T23:33:42.558Z,11.13
2018-07-19T23:36:18.316Z,10.83
2018-07-19T23:38:52.754Z,11.37
2018-07-19T23:41:28.379Z,9.97
2018-07-19T23:44:02.493Z,11.07
2018-07-19T23:46:38.977Z,10.97
2018-07-19T23:49:09.567Z,10.43
2018-07-19T23:51:40.139Z,9.90
2018-07-19T23:54:10.526Z,10.27
2018-07-19T23:56:40.971Z,10.67
2018-07-19T23:59:11.559Z,10.80
